Time;durP1;ratioP1;P1;durP2;ratioP2;P2;SDS_P1;SDS_P2;PMS_P1;PMS_P2;Temp;Humidity;BMP_temperature;BMP_pressure;BME280_temperature;BME280_humidity;BME280_pressure;Samples;Min_cycle;Max_cycle;Signal;HPM_P1;HPM_P2
2023/10/18 00:02:20;;;;;;;0.88;0.88;;;3.70;99.90;;;;;;5064915;28;20408;-76
2023/10/18 00:04:46;;;;;;;2.15;2.05;;;3.60;99.90;;;;;;5042895;28;20036;-77
2023/10/18 00:07:13;;;;;;;3.22;2.95;;;3.60;99.90;;;;;;5044083;28;20036;-76
2023/10/18 00:09:45;;;;;;;1.90;1.80;;;3.50;99.90;;;;;;5042397;28;20166;-77
2023/10/18 00:12:12;;;;;;;8.20;3.70;;;3.60;99.90;;;;;;5060265;28;20522;-77
2023/10/18 00:14:40;;;;;;;3.42;3.13;;;3.60;99.90;;;;;;5047317;28;20462;-77
2023/10/18 00:17:06;;;;;;;2.15;2.05;;;3.60;99.90;;;;;;5052909;28;20052;-77
2023/10/18 00:19:32;;;;;;;4.28;3.65;;;3.70;99.90;;;;;;5040174;28;20040;-76
2023/10/18 00:21:57;;;;;;;1.85;1.30;;;3.80;99.90;;;;;;5048762;28;20036;-75
2023/10/18 00:24:23;;;;;;;6.05;4.60;;;3.80;99.90;;;;;;5071693;28;20082;-76
2023/10/18 00:26:49;;;;;;;4.78;2.05;;;3.80;99.90;;;;;;5053483;28;20043;-76
2023/10/18 00:29:15;;;;;;;1.80;1.70;;;3.80;99.90;;;;;;5051385;28;20576;-75
2023/10/18 00:31:41;;;;;;;4.63;2.45;;;3.80;99.90;;;;;;5046747;28;20115;-75
2023/10/18 00:34:06;;;;;;;5.45;2.13;;;3.80;99.90;;;;;;5045377;28;20046;-76
2023/10/18 00:36:32;;;;;;;3.22;2.92;;;3.80;99.90;;;;;;5059095;28;20074;-75
2023/10/18 00:38:58;;;;;;;1.40;1.27;;;3.80;99.90;;;;;;5037338;28;20029;-75
2023/10/18 00:41:32;;;;;;;2.00;1.88;;;3.80;99.90;;;;;;5051100;28;20456;-75
2023/10/18 00:44:01;;;;;;;1.65;1.60;;;3.80;99.90;;;;;;5066280;28;20036;-76
2023/10/18 00:46:28;;;;;;;;;;;3.80;99.90;;;;;;5040166;28;20047;-76
2023/10/18 00:48:54;;;;;;;8.38;3.20;;;3.80;99.90;;;;;;5055640;28;20285;-76
2023/10/18 00:51:24;;;;;;;4.38;2.08;;;3.90;99.90;;;;;;5051729;28;20111;-76
2023/10/18 00:53:51;;;;;;;1.75;1.42;;;3.80;99.90;;;;;;5063329;28;20124;-76
2023/10/18 00:56:17;;;;;;;1.45;1.35;;;3.90;99.90;;;;;;5046820;28;20055;-75
2023/10/18 00:58:44;;;;;;;3.85;1.85;;;3.80;99.90;;;;;;5065790;28;20489;-76
2023/10/18 01:01:10;;;;;;;1.50;1.23;;;3.90;99.90;;;;;;5072860;28;20558;-77
2023/10/18 01:03:56;;;;;;;1.35;1.25;;;3.80;99.90;;;;;;5052962;28;20409;-76
2023/10/18 01:06:26;;;;;;;1.80;1.67;;;3.80;99.90;;;;;;5051340;28;20044;-76
2023/10/18 01:08:52;;;;;;;0.90;0.90;;;3.80;99.90;;;;;;5061243;28;20375;-76
2023/10/18 01:11:23;;;;;;;0.98;0.70;;;3.80;99.90;;;;;;5051705;28;20042;-75
2023/10/18 01:13:49;;;;;;;0.75;0.75;;;3.80;99.90;;;;;;5071578;28;20044;-75
2023/10/18 01:16:28;;;;;;;0.40;0.40;;;3.80;99.90;;;;;;5046895;28;20051;-75
2023/10/18 01:18:56;;;;;;;0.70;0.70;;;3.70;99.90;;;;;;5072062;28;20451;-76
2023/10/18 01:21:23;;;;;;;0.40;0.40;;;3.70;99.90;;;;;;5041263;28;20055;-75
2023/10/18 01:23:51;;;;;;;0.40;0.40;;;3.70;99.90;;;;;;5055723;28;20038;-76
2023/10/18 01:26:22;;;;;;;0.70;0.70;;;3.70;99.90;;;;;;5069192;28;20036;-75
2023/10/18 01:28:48;;;;;;;0.50;0.50;;;3.70;99.90;;;;;;5045979;28;20389;-76
2023/10/18 01:31:14;;;;;;;0.50;0.50;;;3.60;99.90;;;;;;5062710;28;20117;-75
2023/10/18 01:33:45;;;;;;;0.50;0.50;;;3.60;99.90;;;;;;5071623;28;20466;-75
2023/10/18 01:36:15;;;;;;;1.05;0.95;;;3.50;99.90;;;;;;5044435;28;20426;-75
2023/10/18 01:38:46;;;;;;;0.57;0.57;;;3.50;99.90;;;;;;5063636;28;20052;-76
2023/10/18 01:41:28;;;;;;;0.50;0.50;;;3.50;99.90;;;;;;5072496;28;20524;-75
2023/10/18 01:43:56;;;;;;;0.38;0.38;;;3.50;99.90;;;;;;5049296;28;20366;-75
2023/10/18 01:46:23;;;;;;;0.50;0.50;;;3.50;99.90;;;;;;5072105;28;20051;-77
2023/10/18 01:48:52;;;;;;;0.65;0.65;;;3.40;99.90;;;;;;5042241;28;20139;-77
2023/10/18 01:51:19;;;;;;;0.50;0.50;;;3.40;99.90;;;;;;5062560;28;20044;-77
2023/10/18 01:53:44;;;;;;;0.40;0.40;;;3.40;99.90;;;;;;5048925;28;20047;-77
2023/10/18 01:56:10;;;;;;;0.95;0.95;;;3.40;99.90;;;;;;5071034;28;20416;-77
2023/10/18 01:58:37;;;;;;;0.80;0.75;;;3.40;99.90;;;;;;5068230;28;20039;-77
2023/10/18 02:01:08;;;;;;;1.65;1.40;;;3.40;99.90;;;;;;5054229;28;20035;-77
2023/10/18 02:03:35;;;;;;;2.15;1.73;;;3.40;99.90;;;;;;5065064;28;20083;-77
2023/10/18 02:06:06;;;;;;;1.63;1.52;;;3.40;99.90;;;;;;5055080;28;20530;-77
2023/10/18 02:08:35;;;;;;;2.15;1.98;;;3.50;99.90;;;;;;5062076;28;20048;-77
2023/10/18 02:11:06;;;;;;;3.58;2.50;;;3.50;99.90;;;;;;5056133;28;20031;-78
2023/10/18 02:13:32;;;;;;;1.10;1.10;;;3.60;99.90;;;;;;5053408;28;20235;-77
2023/10/18 02:15:57;;;;;;;0.93;0.93;;;3.50;99.90;;;;;;5068931;28;20508;-78
2023/10/18 02:18:24;;;;;;;1.48;1.35;;;3.50;99.90;;;;;;5053059;28;20993;-77
2023/10/18 02:20:52;;;;;;;0.65;0.65;;;3.50;99.90;;;;;;5076508;28;20040;-78
2023/10/18 02:23:19;;;;;;;;;;;3.50;99.90;;;;;;5076637;28;20044;-77
2023/10/18 02:25:45;;;;;;;0.68;0.68;;;3.40;99.90;;;;;;5051558;28;19924;-77
2023/10/18 02:28:22;;;;;;;0.50;0.50;;;3.40;99.90;;;;;;5049054;28;20262;-77
2023/10/18 02:31:07;;;;;;;0.60;0.60;;;3.30;99.90;;;;;;5067432;28;20478;-77
2023/10/18 02:33:41;;;;;;;0.68;0.68;;;3.30;99.90;;;;;;5059118;28;20468;-77
2023/10/18 02:36:11;;;;;;;0.55;0.55;;;3.30;99.90;;;;;;5035930;28;20036;-77
2023/10/18 02:38:41;;;;;;;0.70;0.70;;;3.30;99.90;;;;;;5052953;28;20071;-78
2023/10/18 02:41:26;;;;;;;1.13;1.13;;;3.30;99.90;;;;;;5060894;28;20076;-78
2023/10/18 02:43:57;;;;;;;1.75;1.30;;;3.30;99.90;;;;;;5049796;28;20571;-77
2023/10/18 02:46:24;;;;;;;0.95;0.95;;;3.30;99.90;;;;;;5045305;28;20048;-77
2023/10/18 02:48:54;;;;;;;1.50;1.08;;;3.40;99.90;;;;;;5043314;28;20060;-76
2023/10/18 02:51:24;;;;;;;1.80;1.25;;;3.40;99.90;;;;;;5045287;28;20489;-75
2023/10/18 02:54:32;;;;;;;0.93;0.70;;;3.40;99.90;;;;;;5055688;28;20044;-75
2023/10/18 02:56:51;;;;;;;;;;;3.40;99.90;;;;;;5054463;28;20055;-75
2023/10/18 02:59:21;;;;;;;;;;;3.40;99.90;;;;;;5060859;28;19916;-75
2023/10/18 03:01:49;;;;;;;1.40;1.33;;;3.40;99.90;;;;;;5042239;28;19931;-75
2023/10/18 03:04:16;;;;;;;2.30;1.98;;;3.40;99.90;;;;;;5064958;28;20403;-76
2023/10/18 03:06:42;;;;;;;1.83;1.67;;;3.40;99.90;;;;;;5059825;28;20032;-75
2023/10/18 03:09:26;;;;;;;2.70;2.42;;;3.40;99.90;;;;;;5053456;28;20043;-76
2023/10/18 03:11:56;;;;;;;3.22;2.95;;;3.40;99.90;;;;;;5042420;28;20040;-75
2023/10/18 03:17:24;;;;;;;0.85;0.85;;;3.40;99.90;;;;;;5066514;28;20455;-75
2023/10/18 03:19:50;;;;;;;1.13;0.98;;;3.40;99.90;;;;;;5048699;28;20473;-75
2023/10/18 03:22:21;;;;;;;1.48;1.45;;;3.40;99.90;;;;;;5053353;28;20036;-75
2023/10/18 03:24:48;;;;;;;1.95;1.85;;;3.40;99.90;;;;;;5064020;28;20097;-75
2023/10/18 03:27:14;;;;;;;1.65;1.55;;;3.40;99.90;;;;;;5046194;28;20044;-75
2023/10/18 03:29:43;;;;;;;2.70;2.20;;;3.40;99.90;;;;;;5061447;28;20032;-75
2023/10/18 03:32:14;;;;;;;2.30;1.95;;;3.40;99.90;;;;;;5063706;28;20040;-75
2023/10/18 03:34:41;;;;;;;5.85;2.88;;;3.40;99.90;;;;;;5070881;28;20094;-76
2023/10/18 03:37:24;;;;;;;5.95;4.32;;;3.40;99.90;;;;;;5061523;28;20071;-76
2023/10/18 03:39:53;;;;;;;2.22;1.75;;;3.40;99.90;;;;;;5062494;28;20051;-75
2023/10/18 03:42:32;;;;;;;5.22;1.13;;;3.50;99.90;;;;;;5057711;28;20478;-76
2023/10/18 03:44:59;;;;;;;2.05;1.60;;;3.50;99.90;;;;;;5041514;28;20033;-75
2023/10/18 03:47:24;;;;;;;2.30;2.20;;;3.40;99.90;;;;;;5050951;28;20378;-75
2023/10/18 03:49:53;;;;;;;1.95;1.85;;;3.50;99.90;;;;;;5053360;28;20042;-75
2023/10/18 03:52:21;;;;;;;3.15;2.88;;;3.50;99.90;;;;;;5048462;28;20078;-74
2023/10/18 03:57:28;;;;;;;5.03;4.63;;;3.60;99.90;;;;;;5065352;28;20113;-75
2023/10/18 03:59:58;;;;;;;4.15;3.35;;;3.60;99.90;;;;;;5066794;28;20044;-75
2023/10/18 04:02:27;;;;;;;6.70;3.85;;;3.60;99.90;;;;;;5067363;28;20048;-75
2023/10/18 04:05:00;;;;;;;3.60;3.22;;;3.70;99.90;;;;;;5053411;28;20044;-75
2023/10/18 04:07:26;;;;;;;3.60;3.33;;;3.60;99.90;;;;;;5074383;28;20122;-75
2023/10/18 04:12:27;;;;;;;6.00;3.17;;;3.70;99.90;;;;;;5091259;28;20125;-75
2023/10/18 04:14:58;;;;;;;5.35;3.67;;;3.70;99.90;;;;;;5047191;28;20093;-75
2023/10/18 04:20:23;;;;;;;4.25;3.85;;;3.80;99.90;;;;;;5071884;28;20140;-75
2023/10/18 04:22:49;;;;;;;;;;;3.80;99.90;;;;;;5052875;28;20036;-75
2023/10/18 04:25:25;;;;;;;6.95;3.65;;;3.80;99.90;;;;;;5056272;28;19932;-75
2023/10/18 04:27:57;;;;;;;5.35;3.55;;;3.80;99.90;;;;;;5047586;28;20032;-75
2023/10/18 04:30:23;;;;;;;2.05;1.90;;;3.80;99.90;;;;;;5051291;28;20119;-75
2023/10/18 04:35:44;;;;;;;0.95;0.95;;;3.80;99.90;;;;;;5064131;28;20055;-77
2023/10/18 04:38:23;;;;;;;1.27;1.27;;;3.80;99.90;;;;;;5059559;28;20071;-76
2023/10/18 04:40:57;;;;;;;;;;;3.80;99.90;;;;;;5044525;28;20028;-77
2023/10/18 04:43:27;;;;;;;0.77;0.60;;;3.70;99.90;;;;;;5065455;28;19958;-77
2023/10/18 04:46:14;;;;;;;1.88;1.30;;;3.80;99.90;;;;;;5044399;28;20033;-77
2023/10/18 04:54:10;;;;;;;4.10;2.20;;;3.70;99.90;;;;;;5061597;28;20119;-77
2023/10/18 04:56:38;;;;;;;6.20;3.22;;;3.70;99.90;;;;;;5049607;28;20619;-76
2023/10/18 04:59:19;;;;;;;6.55;3.55;;;3.60;99.90;;;;;;5052896;28;20040;-76
2023/10/18 05:04:28;;;;;;;3.17;2.90;;;3.60;99.90;;;;;;5063649;28;20045;-76
2023/10/18 05:06:55;;;;;;;2.90;2.75;;;3.50;99.90;;;;;;5052531;28;20131;-76
2023/10/18 05:09:31;;;;;;;7.38;3.65;;;3.50;99.90;;;;;;5047102;28;20136;-76
2023/10/18 05:12:07;;;;;;;3.10;2.90;;;3.50;99.90;;;;;;5063082;28;20033;-76
2023/10/18 05:14:42;;;;;;;3.30;3.08;;;3.40;99.90;;;;;;5044368;28;20043;-76
2023/10/18 05:17:17;;;;;;;2.22;2.03;;;3.40;99.90;;;;;;5041078;28;20385;-76
2023/10/18 05:19:47;;;;;;;1.83;1.73;;;3.40;99.90;;;;;;5063847;28;20040;-76
2023/10/18 05:22:25;;;;;;;1.15;1.15;;;3.40;99.90;;;;;;5056299;28;20036;-76
2023/10/18 05:27:45;;;;;;;1.52;1.30;;;3.40;99.90;;;;;;5068889;28;20055;-76
2023/10/18 05:30:15;;;;;;;0.55;0.55;;;3.40;99.90;;;;;;5072680;28;20107;-77
2023/10/18 05:35:33;;;;;;;0.90;0.90;;;3.40;99.90;;;;;;5066743;28;20031;-77
2023/10/18 05:37:59;;;;;;;3.42;1.63;;;3.40;99.90;;;;;;5055210;28;20032;-76
2023/10/18 05:40:42;;;;;;;3.40;2.58;;;3.40;99.90;;;;;;5043913;28;20085;-77
2023/10/18 05:45:56;;;;;;;3.15;2.70;;;3.40;99.90;;;;;;5060077;28;20048;-76
2023/10/18 05:48:22;;;;;;;;;;;3.40;99.90;;;;;;5069379;28;20040;-77
2023/10/18 05:53:33;;;;;;;9.38;3.80;;;3.40;99.90;;;;;;5067836;28;20194;-76
2023/10/18 05:55:58;;;;;;;4.00;3.13;;;3.40;99.90;;;;;;5063578;28;20556;-76
2023/10/18 05:58:27;;;;;;;3.33;3.13;;;3.40;99.90;;;;;;5066768;28;20040;-76
2023/10/18 06:00:55;;;;;;;3.47;2.53;;;3.50;99.90;;;;;;5065679;28;20036;-76
2023/10/18 06:03:38;;;;;;;4.68;4.13;;;3.40;99.90;;;;;;5038939;28;20059;-76
2023/10/18 06:06:04;;;;;;;2.83;2.40;;;3.50;99.90;;;;;;5059970;28;20049;-76
2023/10/18 06:08:31;;;;;;;3.20;2.67;;;3.50;99.90;;;;;;5062490;28;20036;-77
2023/10/18 06:11:00;;;;;;;4.18;2.38;;;3.50;99.90;;;;;;5058059;28;20037;-76
2023/10/18 06:13:27;;;;;;;;;;;3.50;99.90;;;;;;5048753;28;20048;-76
2023/10/18 06:15:58;;;;;;;1.52;1.42;;;3.50;99.90;;;;;;5054385;28;19920;-77
2023/10/18 06:18:37;;;;;;;2.75;2.55;;;3.50;99.90;;;;;;5047025;28;20127;-76
2023/10/18 06:21:11;;;;;;;4.07;3.67;;;3.50;99.90;;;;;;5049476;28;20096;-76
2023/10/18 06:23:36;;;;;;;3.33;3.08;;;3.60;99.90;;;;;;5040177;28;20037;-76
2023/10/18 06:29:08;;;;;;;5.55;3.55;;;3.60;99.90;;;;;;5022148;28;20502;-76
2023/10/18 06:31:46;;;;;;;4.18;3.65;;;3.60;99.90;;;;;;5061339;28;20053;-77
2023/10/18 06:34:18;;;;;;;5.22;4.72;;;3.60;99.90;;;;;;5066868;28;20036;-76
2023/10/18 06:36:52;;;;;;;5.93;4.60;;;3.60;99.90;;;;;;5067089;28;20340;-76
2023/10/18 06:39:34;;;;;;;4.97;4.50;;;3.60;99.90;;;;;;5049905;28;20045;-75
2023/10/18 06:42:06;;;;;;;3.83;3.60;;;3.70;99.90;;;;;;5052675;28;20119;-75
2023/10/18 06:44:33;;;;;;;3.85;3.60;;;3.70;99.90;;;;;;5070333;28;20048;-75
2023/10/18 06:47:01;;;;;;;6.22;5.68;;;3.80;99.90;;;;;;5043807;28;20043;-75
2023/10/18 06:49:27;;;;;;;4.88;3.55;;;3.80;99.90;;;;;;5043839;28;20548;-75
2023/10/18 06:51:53;;;;;;;4.47;3.45;;;3.90;99.90;;;;;;5044901;28;20033;-76
2023/10/18 06:54:30;;;;;;;6.07;5.53;;;3.90;99.90;;;;;;5043813;28;20074;-75
2023/10/18 06:57:15;;;;;;;6.18;5.68;;;4.10;99.90;;;;;;5048103;28;20039;-77
2023/10/18 06:59:45;;;;;;;7.80;5.75;;;4.10;99.90;;;;;;5066713;28;20409;-76
2023/10/18 07:02:12;;;;;;;8.77;7.30;;;4.20;99.90;;;;;;5034176;28;20037;-76
2023/10/18 07:04:38;;;;;;;6.40;4.50;;;4.20;99.90;;;;;;5046935;28;20071;-76
2023/10/18 07:07:13;;;;;;;6.20;5.32;;;4.30;99.90;;;;;;5021186;28;20380;-75
2023/10/18 07:09:43;;;;;;;4.07;3.78;;;4.30;99.90;;;;;;5025814;28;20037;-76
2023/10/18 07:12:11;;;;;;;5.88;5.47;;;4.40;99.90;;;;;;5051500;28;20029;-76
2023/10/18 07:14:38;;;;;;;9.65;7.40;;;4.40;99.90;;;;;;5037656;28;20112;-76
2023/10/18 07:17:09;;;;;;;7.63;6.20;;;4.50;99.90;;;;;;5029024;28;20502;-77
2023/10/18 07:19:48;;;;;;;6.60;5.97;;;4.50;99.90;;;;;;5044151;28;20052;-77
2023/10/18 07:22:21;;;;;;;6.78;4.88;;;4.60;99.90;;;;;;5040072;28;20064;-75
2023/10/18 07:24:59;;;;;;;7.55;6.85;;;4.70;99.90;;;;;;5032327;28;20513;-75
2023/10/18 07:27:29;;;;;;;7.70;6.70;;;4.70;99.90;;;;;;5023853;28;20052;-75
2023/10/18 07:29:58;;;;;;;6.00;5.43;;;4.80;99.90;;;;;;5040048;28;20103;-75
2023/10/18 07:32:24;;;;;;;6.55;5.85;;;4.80;99.90;;;;;;5025726;28;20041;-75
2023/10/18 07:34:54;;;;;;;6.60;5.93;;;4.90;99.90;;;;;;5048651;28;20068;-75
2023/10/18 07:37:41;;;;;;;5.05;4.55;;;4.90;99.90;;;;;;5040403;28;20051;-76
2023/10/18 07:40:11;;;;;;;5.78;5.15;;;5.00;99.90;;;;;;5044101;28;20487;-75
2023/10/18 07:42:43;;;;;;;4.80;4.47;;;5.10;99.90;;;;;;5027505;28;20049;-75
2023/10/18 07:45:14;;;;;;;5.20;4.80;;;5.20;99.90;;;;;;5039812;28;20056;-76
2023/10/18 07:47:40;;;;;;;12.20;5.32;;;5.20;99.90;;;;;;5034147;28;20410;-75
2023/10/18 07:53:12;;;;;;;4.30;3.85;;;5.30;99.90;;;;;;5009561;28;20046;-75
2023/10/18 07:58:22;;;;;;;5.75;4.35;;;5.50;99.90;;;;;;4493103;23;20105;-76
2023/10/18 08:01:08;;;;;;;4.65;4.25;;;5.60;99.90;;;;;;4986832;28;20405;-77
2023/10/18 08:03:33;;;;;;;6.47;4.40;;;5.70;99.90;;;;;;4992191;28;20044;-78
2023/10/18 08:06:05;;;;;;;7.82;4.68;;;5.70;99.90;;;;;;4984761;28;20418;-77
2023/10/18 08:08:31;;;;;;;4.97;3.47;;;5.80;99.90;;;;;;4985051;28;20120;-77
2023/10/18 08:10:59;;;;;;;3.38;3.10;;;5.90;99.90;;;;;;5006456;28;20046;-77
2023/10/18 08:13:28;;;;;;;4.95;4.47;;;5.90;99.90;;;;;;4975173;28;20089;-77
2023/10/18 08:16:01;;;;;;;7.82;6.38;;;6.00;99.90;;;;;;4991535;28;20046;-77
2023/10/18 08:19:01;;;;;;;6.40;4.57;;;6.10;99.90;;;;;;5008887;28;20042;-77
2023/10/18 08:21:26;;;;;;;6.85;6.18;;;6.10;99.90;;;;;;5001946;28;20060;-78
2023/10/18 08:23:55;;;;;;;5.57;4.55;;;6.20;99.90;;;;;;4972818;28;20104;-77
2023/10/18 08:26:29;;;;;;;5.13;4.07;;;6.20;99.90;;;;;;5011210;28;20061;-77
2023/10/18 08:28:54;;;;;;;6.00;4.88;;;6.30;99.90;;;;;;5013908;28;20104;-77
2023/10/18 08:31:32;;;;;;;6.28;5.88;;;6.40;99.90;;;;;;4996716;28;20053;-77
2023/10/18 08:33:59;;;;;;;14.27;6.53;;;6.40;99.90;;;;;;5011584;28;20525;-77
2023/10/18 08:36:30;;;;;;;9.32;4.00;;;6.50;99.90;;;;;;4996415;28;20064;-77
2023/10/18 08:38:57;;;;;;;5.18;4.88;;;6.50;99.90;;;;;;5010655;28;20045;-77
2023/10/18 08:41:32;;;;;;;8.90;6.43;;;6.60;99.90;;;;;;4992611;28;20037;-77
2023/10/18 08:44:06;;;;;;;12.23;6.65;;;6.60;99.90;;;;;;4974327;28;20096;-77
2023/10/18 08:46:36;;;;;;;7.05;6.18;;;6.70;99.90;;;;;;4994183;28;20041;-77
2023/10/18 08:49:04;;;;;;;8.73;6.28;;;6.70;99.90;;;;;;4992754;28;20112;-78
2023/10/18 08:51:30;;;;;;;10.60;5.82;;;6.80;99.90;;;;;;4992828;28;20064;-77
2023/10/18 08:53:59;;;;;;;12.32;6.32;;;6.80;99.90;;;;;;5010707;28;20687;-77
2023/10/18 08:56:29;;;;;;;6.68;5.68;;;6.90;99.90;;;;;;5009999;28;20137;-77
2023/10/18 08:58:56;;;;;;;7.35;6.57;;;7.00;99.90;;;;;;4985180;28;20049;-77
2023/10/18 09:01:24;;;;;;;7.70;7.00;;;7.00;99.90;;;;;;5001561;28;20050;-77
2023/10/18 09:03:50;;;;;;;5.55;5.10;;;7.00;99.90;;;;;;4975340;28;20057;-77
2023/10/18 09:06:22;;;;;;;5.45;4.85;;;7.10;99.90;;;;;;4978009;28;20051;-76
2023/10/18 09:09:05;;;;;;;14.13;6.68;;;7.20;99.90;;;;;;4992643;28;20084;-77
2023/10/18 09:11:31;;;;;;;9.18;7.10;;;7.20;99.90;;;;;;4988847;28;20117;-77
2023/10/18 09:14:30;;;;;;;5.53;4.22;;;7.30;99.90;;;;;;5009155;28;20060;-77
2023/10/18 09:16:56;;;;;;;7.80;3.95;;;7.30;99.90;;;;;;4988941;28;20064;-76
2023/10/18 09:19:27;;;;;;;6.22;5.68;;;7.40;99.90;;;;;;4988888;28;20045;-76
2023/10/18 09:21:57;;;;;;;9.00;6.07;;;7.50;99.90;;;;;;5000094;28;20045;-76
2023/10/18 09:24:23;;;;;;;7.40;6.75;;;7.60;99.90;;;;;;4983389;28;20107;-76
2023/10/18 09:26:50;;;;;;;11.63;4.85;;;7.60;99.90;;;;;;5000618;28;20057;-77
2023/10/18 09:29:17;;;;;;;5.53;5.03;;;7.70;99.90;;;;;;4984026;28;20042;-77
2023/10/18 09:31:52;;;;;;;6.53;5.03;;;7.80;99.90;;;;;;4987854;28;20053;-77
2023/10/18 09:34:19;;;;;;;10.63;3.90;;;7.80;99.90;;;;;;4985625;28;20091;-76
2023/10/18 09:36:56;;;;;;;3.85;3.53;;;7.90;99.90;;;;;;4992327;28;20106;-76
2023/10/18 09:39:21;;;;;;;5.75;4.60;;;8.00;99.90;;;;;;4978687;28;20046;-76
2023/10/18 09:41:51;;;;;;;3.10;2.90;;;8.10;99.90;;;;;;4989371;28;20231;-77
2023/10/18 09:44:18;;;;;;;6.72;4.47;;;8.20;99.90;;;;;;5007190;28;20038;-76
2023/10/18 09:46:48;;;;;;;2.97;2.78;;;8.20;99.90;;;;;;5005440;28;20564;-74
2023/10/18 09:49:21;;;;;;;5.00;4.53;;;8.30;99.90;;;;;;5005266;28;20042;-73
2023/10/18 09:51:55;;;;;;;9.38;6.30;;;8.30;99.90;;;;;;5007425;28;20081;-74
2023/10/18 09:54:22;;;;;;;5.10;4.30;;;8.40;99.90;;;;;;5007704;28;20546;-75
2023/10/18 09:56:53;;;;;;;3.33;3.00;;;8.50;99.90;;;;;;5005107;28;20096;-76
2023/10/18 09:59:26;;;;;;;4.68;3.28;;;8.60;99.90;;;;;;5007145;28;20065;-76
2023/10/18 10:01:57;;;;;;;3.97;3.67;;;8.60;99.90;;;;;;4990435;28;20050;-76
2023/10/18 10:04:25;;;;;;;6.18;4.57;;;8.70;99.90;;;;;;5008014;28;20053;-76
2023/10/18 10:06:55;;;;;;;7.00;4.75;;;8.70;99.90;;;;;;4984939;28;20064;-76
2023/10/18 10:09:29;;;;;;;6.85;5.22;;;8.70;99.90;;;;;;4986583;28;20050;-73
2023/10/18 10:11:55;;;;;;;19.80;5.82;;;8.90;99.90;;;;;;5006476;28;20121;-72
2023/10/18 10:14:24;;;;;;;6.57;5.97;;;8.90;99.90;;;;;;4973401;28;20077;-73
2023/10/18 10:17:28;;;;;;;7.50;6.75;;;8.90;99.90;;;;;;4990323;28;20057;-73
2023/10/18 10:19:58;;;;;;;4.90;4.38;;;9.00;99.90;;;;;;5006749;28;20041;-73
2023/10/18 10:22:26;;;;;;;4.97;4.47;;;9.00;99.90;;;;;;5008297;28;20045;-73
2023/10/18 10:25:00;;;;;;;7.68;5.53;;;9.00;99.90;;;;;;4983618;28;20418;-73
2023/10/18 10:32:49;;;;;;;6.25;4.43;;;9.10;99.90;;;;;;5003459;28;20092;-74
2023/10/18 10:35:17;;;;;;;4.60;4.20;;;9.20;99.90;;;;;;4989653;28;20065;-74
2023/10/18 10:37:47;;;;;;;10.45;5.55;;;9.30;99.90;;;;;;4984526;28;20160;-73
2023/10/18 10:40:19;;;;;;;4.68;4.18;;;9.30;99.90;;;;;;4989642;28;20046;-73
2023/10/18 10:42:48;;;;;;;9.82;6.63;;;9.40;99.90;;;;;;5003622;28;20052;-73
2023/10/18 10:46:18;;;;;;;5.43;4.85;;;9.40;99.90;;;;;;4983658;28;20053;-73
2023/10/18 10:51:20;;;;;;;7.13;5.93;;;9.70;99.90;;;;;;4985235;28;20065;-73
2023/10/18 10:53:58;;;;;;;7.95;5.32;;;9.80;99.90;;;;;;4980150;28;20058;-73
2023/10/18 10:56:26;;;;;;;3.00;2.83;;;10.00;99.90;;;;;;4989572;28;20150;-73
2023/10/18 10:58:55;;;;;;;;;;;10.00;99.90;;;;;;5007394;28;20425;-74
2023/10/18 11:07:23;;;;;;;7.05;6.45;;;10.20;99.90;;;;;;5006135;28;20057;-73
2023/10/18 11:09:50;;;;;;;6.35;5.82;;;10.30;99.90;;;;;;4989600;28;20053;-72
2023/10/18 11:12:17;;;;;;;8.57;5.38;;;10.30;99.90;;;;;;4985770;28;20053;-74
2023/10/18 11:14:50;;;;;;;10.57;3.75;;;10.30;99.90;;;;;;4972342;28;20045;-74
2023/10/18 11:19:43;;;;;;;8.38;3.55;;;10.40;99.90;;;;;;5004176;28;20050;-73
2023/10/18 11:22:13;;;;;;;6.38;3.72;;;10.40;99.90;;;;;;4993428;28;20075;-73
2023/10/18 11:24:39;;;;;;;4.20;3.90;;;10.40;99.90;;;;;;4985681;28;20052;-73
2023/10/18 11:27:08;;;;;;;4.07;3.78;;;10.60;99.90;;;;;;5004433;28;20829;-73
2023/10/18 11:29:38;;;;;;;5.40;3.65;;;10.50;99.90;;;;;;5006359;28;20045;-73
2023/10/18 11:32:17;;;;;;;5.45;4.57;;;10.40;99.90;;;;;;5002576;28;20048;-74
2023/10/18 11:34:44;;;;;;;6.88;6.13;;;10.50;99.90;;;;;;4987902;28;20450;-73
2023/10/18 11:37:14;;;;;;;3.05;2.88;;;10.50;99.90;;;;;;5002001;28;20045;-73
2023/10/18 11:39:40;;;;;;;7.13;5.45;;;10.60;99.90;;;;;;5003885;28;20073;-74
2023/10/18 11:42:06;;;;;;;3.67;3.38;;;10.60;99.90;;;;;;4986759;28;20056;-74
2023/10/18 11:44:33;;;;;;;4.40;4.00;;;10.60;99.90;;;;;;4980842;28;20037;-74
2023/10/18 11:47:11;;;;;;;5.20;3.42;;;10.60;99.90;;;;;;4988490;28;20054;-74
2023/10/18 11:49:42;;;;;;;7.05;5.82;;;10.70;99.90;;;;;;4983843;28;20153;-74
2023/10/18 11:52:21;;;;;;;9.55;2.97;;;10.70;99.90;;;;;;5004966;28;20048;-74
2023/10/18 11:54:52;;;;;;;5.22;4.75;;;10.90;99.90;;;;;;4994639;28;20042;-73
2023/10/18 11:57:28;;;;;;;2.35;2.25;;;10.90;99.90;;;;;;5002381;28;20125;-73
2023/10/18 12:00:21;;;;;;;5.22;2.88;;;11.00;99.90;;;;;;4984152;28;20050;-73
2023/10/18 12:02:44;;;;;;;7.80;5.30;;;11.00;99.90;;;;;;4989146;28;20084;-73
2023/10/18 12:05:14;;;;;;;13.05;4.00;;;11.10;99.90;;;;;;5007347;28;20053;-74
2023/10/18 12:07:46;;;;;;;3.08;2.88;;;11.10;99.90;;;;;;4990165;28;20049;-74
2023/10/18 12:10:17;;;;;;;3.85;3.60;;;11.10;99.90;;;;;;4988348;28;20088;-75
2023/10/18 12:12:49;;;;;;;4.55;4.10;;;11.20;99.90;;;;;;5003003;28;20045;-76
2023/10/18 12:15:15;;;;;;;4.40;3.15;;;11.20;99.90;;;;;;4988561;28;20057;-76
2023/10/18 12:17:42;;;;;;;6.50;2.65;;;11.20;99.90;;;;;;5006289;28;20046;-76
2023/10/18 12:20:10;;;;;;;4.90;4.57;;;11.20;99.90;;;;;;4992529;28;20498;-76
2023/10/18 12:22:36;;;;;;;11.60;5.72;;;11.20;99.90;;;;;;4983468;28;20117;-76
2023/10/18 12:25:02;;;;;;;4.88;4.05;;;11.20;99.90;;;;;;5009943;28;20038;-76
2023/10/18 12:27:34;;;;;;;10.95;4.55;;;11.20;99.90;;;;;;4992726;28;20502;-76
2023/10/18 12:32:52;;;;;;;4.90;4.28;;;11.20;99.90;;;;;;5005372;28;20093;-77
2023/10/18 12:35:21;;;;;;;4.55;4.15;;;11.30;99.90;;;;;;5008891;28;20057;-75
2023/10/18 12:37:51;;;;;;;2.88;2.67;;;11.30;99.90;;;;;;4992690;28;20498;-75
2023/10/18 12:40:40;;;;;;;9.85;2.97;;;11.30;99.90;;;;;;4991980;28;20061;-74
2023/10/18 12:43:07;;;;;;;4.22;3.67;;;11.30;99.90;;;;;;5006710;28;20050;-75
2023/10/18 12:45:44;;;;;;;3.45;3.10;;;11.20;99.90;;;;;;4991278;28;20048;-75
2023/10/18 12:48:11;;;;;;;4.03;3.72;;;11.30;99.90;;;;;;4989307;28;20045;-75
2023/10/18 12:50:45;;;;;;;3.15;2.50;;;11.30;99.90;;;;;;5009185;28;20045;-75
2023/10/18 12:55:57;;;;;;;4.82;3.92;;;11.30;99.90;;;;;;5009850;28;20045;-75
2023/10/18 12:58:30;;;;;;;6.38;4.07;;;11.30;99.90;;;;;;5009739;28;20396;-74
2023/10/18 13:01:05;;;;;;;7.13;5.05;;;11.30;99.90;;;;;;4989382;28;20054;-75
2023/10/18 13:03:38;;;;;;;6.78;4.97;;;11.30;99.90;;;;;;5009106;28;20046;-75
2023/10/18 13:06:15;;;;;;;5.93;3.88;;;11.30;99.90;;;;;;4992008;28;20058;-75
2023/10/18 13:08:54;;;;;;;5.38;4.07;;;11.20;99.90;;;;;;5003729;28;20120;-75
2023/10/18 13:12:07;;;;;;;5.15;4.70;;;11.20;99.90;;;;;;5005764;28;20050;-74
2023/10/18 13:14:14;;;;;;;4.25;3.88;;;11.20;99.90;;;;;;5000286;28;20056;-74
2023/10/18 13:16:42;;;;;;;4.90;4.45;;;11.20;99.90;;;;;;5005413;28;20461;-74
2023/10/18 13:19:07;;;;;;;5.80;4.15;;;11.10;99.90;;;;;;5009863;28;20100;-74
2023/10/18 13:21:33;;;;;;;5.20;3.65;;;11.20;99.90;;;;;;5009626;28;20046;-74
2023/10/18 13:23:59;;;;;;;5.60;4.72;;;11.20;99.90;;;;;;4991933;28;20088;-74
2023/10/18 13:26:31;;;;;;;14.10;7.43;;;11.20;99.90;;;;;;5009622;28;20081;-74
2023/10/18 13:29:00;;;;;;;9.52;5.88;;;11.20;99.90;;;;;;4991573;28;20502;-73
2023/10/18 13:31:32;;;;;;;3.58;3.20;;;11.20;99.90;;;;;;5008461;28;20057;-74
2023/10/18 13:34:06;;;;;;;7.57;6.22;;;11.20;99.90;;;;;;4992165;28;20048;-74
2023/10/18 13:36:32;;;;;;;5.50;4.82;;;11.20;99.90;;;;;;4992174;28;20073;-74
2023/10/18 13:39:00;;;;;;;5.45;4.85;;;11.30;99.90;;;;;;5008030;28;20054;-74
2023/10/18 13:41:25;;;;;;;4.53;4.13;;;11.30;99.90;;;;;;5001618;28;20041;-74
2023/10/18 13:43:54;;;;;;;7.93;3.88;;;11.30;99.90;;;;;;4984553;28;20049;-74
2023/10/18 13:46:22;;;;;;;7.15;4.50;;;11.40;99.90;;;;;;4987054;28;20129;-74
2023/10/18 13:48:51;;;;;;;6.53;5.88;;;11.40;99.90;;;;;;5007791;28;20541;-75
2023/10/18 13:51:19;;;;;;;6.63;5.18;;;11.50;99.90;;;;;;4990989;28;20042;-74
2023/10/18 13:53:46;;;;;;;5.13;4.27;;;11.40;99.90;;;;;;5008190;28;20054;-74
2023/10/18 13:56:15;;;;;;;6.13;2.97;;;11.40;99.90;;;;;;4991299;28;20048;-74
2023/10/18 13:58:42;;;;;;;5.70;4.10;;;11.40;99.90;;;;;;4989298;28;20510;-74
2023/10/18 14:01:17;;;;;;;6.30;4.78;;;11.30;99.90;;;;;;4984833;28;20840;-74
2023/10/18 14:03:48;;;;;;;12.82;4.90;;;11.30;99.90;;;;;;5002724;28;20054;-74
2023/10/18 14:06:14;;;;;;;3.92;3.55;;;11.20;99.90;;;;;;4991178;28;20573;-74
2023/10/18 14:08:43;;;;;;;6.03;3.60;;;11.10;99.90;;;;;;5001755;28;20065;-74
2023/10/18 14:11:09;;;;;;;;;;;11.10;99.90;;;;;;4985890;28;20271;-75
2023/10/18 14:13:36;;;;;;;3.78;2.92;;;11.00;99.90;;;;;;4990027;28;19968;-74
2023/10/18 14:16:02;;;;;;;9.15;3.63;;;11.10;99.90;;;;;;4988103;28;20069;-74
2023/10/18 14:18:27;;;;;;;6.13;2.97;;;11.00;99.90;;;;;;4989269;28;20050;-75
2023/10/18 14:20:53;;;;;;;6.32;5.47;;;11.00;99.90;;;;;;5004464;28;20050;-74